Galena, Indiana
Current Conditions -  °F | °C
As of 1:56 PM on Thursday 30 Oct 2014 (Local Time) from KSDF Reporting Station
Scattered Clouds Scattered Clouds  
Wind Chill: 54°   Ceiling: Unl
Heat Index: 54°   Visibility: 10mi
Dew Point: 35°   Wind: 5mph
Humidity: 49%   Direction: NA
Pressure: 30.12"   Gusts: NA
Location:  38.3602°N, 85.8979°W
Report Text: KSDF 301756Z VRB04KT 10SM SCT250 12/02 A3012 RMK AO2 SLP199 T01220017 10128 20044 58021
Loading
Personal Weather Stations






























Interactive Weather Map
Tropical Storm Tracking
New forecast layout! Learn more

10-Day Weather Forecast

Advertisements
Track Severe Weather on mobile